createdAt,value
2023-01-09T00:01:40.643Z,99572.66
2023-01-09T00:04:08.806Z,99577.69
2023-01-09T00:06:37.500Z,99563.16
2023-01-09T00:09:05.705Z,99560.94
2023-01-09T00:11:33.685Z,99558.63
2023-01-09T00:14:03.199Z,99549.25
2023-01-09T00:16:31.361Z,99545.22
2023-01-09T00:19:00.374Z,99544.25
2023-01-09T00:21:28.359Z,99539.06
2023-01-09T00:23:56.322Z,99540.41
2023-01-09T00:26:24.632Z,99540.56
2023-01-09T00:28:54.142Z,99537.06
2023-01-09T00:31:23.446Z,99528.22
2023-01-09T00:33:59.285Z,99526.06
2023-01-09T00:36:27.715Z,99523.22
2023-01-09T00:38:55.920Z,99521.19
2023-01-09T00:41:28.675Z,99518.50
2023-01-09T00:44:03.465Z,99515.50
2023-01-09T00:46:38.610Z,99511.00
2023-01-09T00:49:13.387Z,99507.50
2023-01-09T00:51:43.435Z,99515.16
2023-01-09T00:54:16.194Z,99514.88
2023-01-09T00:56:44.770Z,99506.69
2023-01-09T00:59:12.777Z,99499.16
2023-01-09T01:01:42.376Z,99498.81
2023-01-09T01:04:24.125Z,99480.63
2023-01-09T01:07:21.182Z,99489.13
2023-01-09T01:09:49.131Z,99488.97
2023-01-09T01:12:20.384Z,99485.13
2023-01-09T01:14:48.383Z,99488.13
2023-01-09T01:17:17.661Z,99494.44
2023-01-09T01:19:46.097Z,99492.59
2023-01-09T01:22:14.078Z,99488.13
2023-01-09T01:24:42.119Z,99491.94
2023-01-09T01:27:10.093Z,99481.75
2023-01-09T01:29:38.477Z,99480.78
2023-01-09T01:32:06.755Z,99480.44
2023-01-09T01:34:36.076Z,99471.56
2023-01-09T01:37:04.058Z,99473.06
2023-01-09T01:39:32.003Z,99477.88
2023-01-09T01:42:00.147Z,99467.03
2023-01-09T01:45:05.378Z,99472.66
2023-01-09T01:47:42.490Z,99466.00
2023-01-09T01:50:20.599Z,99468.50
2023-01-09T01:53:05.892Z,99467.19
2023-01-09T01:55:37.588Z,99456.00
2023-01-09T01:58:10.420Z,99451.47
2023-01-09T02:00:44.674Z,99446.50
2023-01-09T02:03:17.303Z,99439.34
2023-01-09T02:05:46.929Z,99441.16
2023-01-09T02:08:14.727Z,99434.31
2023-01-09T02:10:43.585Z,99438.28
2023-01-09T02:13:13.253Z,99439.78
2023-01-09T02:15:55.285Z,99442.94
2023-01-09T02:18:40.865Z,99440.78
2023-01-09T02:21:23.342Z,99432.94
2023-01-09T02:24:14.104Z,99428.59
2023-01-09T02:27:14.507Z,99428.06
2023-01-09T02:30:24.856Z,99427.63
2023-01-09T02:33:08.360Z,99438.28
2023-01-09T02:36:10.597Z,99428.78
2023-01-09T02:38:54.914Z,99425.97
2023-01-09T02:41:37.419Z,99421.63
2023-01-09T02:44:18.968Z,99425.63
2023-01-09T02:46:48.657Z,99437.28
2023-01-09T02:49:17.965Z,99435.47
2023-01-09T02:51:54.055Z,99438.28
2023-01-09T02:54:40.279Z,99445.63
2023-01-09T02:57:43.767Z,99445.28
2023-01-09T03:00:28.946Z,99434.28
2023-01-09T03:03:11.177Z,99427.47
2023-01-09T03:05:44.962Z,99432.81
2023-01-09T03:08:18.215Z,99427.78
2023-01-09T03:10:56.902Z,99435.97
2023-01-09T03:13:31.367Z,99432.63
2023-01-09T03:16:06.960Z,99417.91
2023-01-09T03:18:40.329Z,99422.06
2023-01-09T03:21:12.452Z,99411.41
2023-01-09T03:23:53.299Z,99415.59
2023-01-09T03:26:23.888Z,99416.59
2023-01-09T03:28:52.967Z,99407.25
2023-01-09T03:31:20.975Z,99406.09
2023-01-09T03:33:50.422Z,99405.09
2023-01-09T03:36:21.978Z,99405.31
2023-01-09T03:38:51.370Z,99400.16
2023-01-09T03:41:19.592Z,99393.34
2023-01-09T03:43:48.837Z,99385.97
2023-01-09T03:46:17.690Z,99382.66
2023-01-09T03:48:45.804Z,99384.31
2023-01-09T03:51:15.099Z,99388.69
2023-01-09T03:53:43.033Z,99382.66
2023-01-09T03:56:11.093Z,99371.69
2023-01-09T03:58:39.001Z,99372.66
2023-01-09T04:01:09.392Z,99370.66
2023-01-09T04:03:37.482Z,99372.81
2023-01-09T04:06:06.076Z,99366.34
2023-01-09T04:08:35.607Z,99367.34
2023-01-09T04:11:03.658Z,99364.66
2023-01-09T04:13:31.581Z,99359.97
2023-01-09T04:16:06.007Z,99364.47
2023-01-09T04:18:33.928Z,99354.81
2023-01-09T04:21:03.595Z,99349.63
2023-01-09T04:23:31.415Z,99351.31
2023-01-09T04:26:00.779Z,99350.81
2023-01-09T04:28:28.835Z,99348.31
2023-01-09T04:30:58.729Z,99354.97
2023-01-09T04:33:26.663Z,99343.63
2023-01-09T04:35:54.616Z,99348.66
2023-01-09T04:38:22.605Z,99346.13
2023-01-09T04:40:53.779Z,99338.13
2023-01-09T04:43:23.083Z,99337.44
2023-01-09T04:45:51.126Z,99333.63
2023-01-09T04:48:19.885Z,99327.59
2023-01-09T04:50:47.854Z,99327.75
2023-01-09T04:53:15.747Z,99327.22
2023-01-09T04:55:43.777Z,99326.41
2023-01-09T04:58:11.748Z,99328.59
2023-01-09T05:00:41.048Z,99317.91
2023-01-09T05:03:08.996Z,99322.91
2023-01-09T05:05:36.914Z,99325.25
2023-01-09T05:08:05.979Z,99328.44
2023-01-09T05:10:33.969Z,99327.94
2023-01-09T05:13:01.952Z,99328.28
2023-01-09T05:15:30.949Z,99324.94
2023-01-09T05:18:00.414Z,99325.91
2023-01-09T05:20:28.408Z,99325.09
2023-01-09T05:22:56.426Z,99322.25
2023-01-09T05:25:24.472Z,99316.78
2023-01-09T05:27:52.475Z,99315.91
2023-01-09T05:30:21.418Z,99310.91
2023-01-09T05:32:49.385Z,99306.59
2023-01-09T05:35:18.785Z,99300.75
2023-01-09T05:37:54.876Z,99314.75
2023-01-09T05:40:24.812Z,99300.75
2023-01-09T05:42:56.818Z,99298.88
2023-01-09T05:45:25.132Z,99298.22
2023-01-09T05:47:57.876Z,99293.03
2023-01-09T05:50:44.182Z,99298.84
2023-01-09T05:53:12.262Z,99301.91
2023-01-09T05:55:40.235Z,99298.56
2023-01-09T05:58:10.864Z,99299.88
2023-01-09T06:00:38.828Z,99296.22
2023-01-09T06:03:07.051Z,99284.50
2023-01-09T06:05:39.073Z,99289.22
2023-01-09T06:08:27.436Z,99300.69
2023-01-09T06:10:57.318Z,99292.34
2023-01-09T06:13:27.834Z,99294.19
2023-01-09T06:15:58.641Z,99295.50
2023-01-09T06:18:29.991Z,99282.47
2023-01-09T06:21:14.290Z,99285.00
2023-01-09T06:23:42.310Z,99282.31
2023-01-09T06:26:10.277Z,99282.81
2023-01-09T06:28:38.272Z,99282.81
2023-01-09T06:31:06.951Z,99280.16
2023-01-09T06:33:37.765Z,99273.47
2023-01-09T06:36:06.759Z,99278.47
2023-01-09T06:38:36.335Z,99278.81
2023-01-09T06:41:04.459Z,99282.47
2023-01-09T06:43:32.354Z,99279.16
2023-01-09T06:46:03.244Z,99280.28
2023-01-09T06:48:31.217Z,99276.81
2023-01-09T06:50:59.167Z,99282.47
2023-01-09T06:53:27.539Z,99271.06
2023-01-09T06:55:56.895Z,99276.41
2023-01-09T06:58:24.891Z,99267.72
2023-01-09T07:00:53.543Z,99257.59
2023-01-09T07:03:24.549Z,99253.41
2023-01-09T07:05:53.085Z,99244.34
2023-01-09T07:08:22.236Z,99255.94
2023-01-09T07:10:50.213Z,99253.41
2023-01-09T07:13:19.499Z,99259.81
2023-01-09T07:15:49.621Z,99252.59
2023-01-09T07:18:17.603Z,99248.41
2023-01-09T07:20:48.451Z,99244.41
2023-01-09T07:23:19.054Z,99247.06
2023-01-09T07:25:52.908Z,99259.09
2023-01-09T07:28:22.212Z,99261.59
2023-01-09T07:30:50.157Z,99262.56
2023-01-09T07:33:18.196Z,99263.63
2023-01-09T07:35:46.125Z,99260.91
2023-01-09T07:38:14.297Z,99263.28
2023-01-09T07:40:42.492Z,99261.59
2023-01-09T07:43:10.443Z,99268.59
2023-01-09T07:45:39.772Z,99264.88
2023-01-09T07:48:08.083Z,99266.94
2023-01-09T07:50:36.233Z,99262.06
2023-01-09T07:53:04.207Z,99273.94
2023-01-09T07:55:32.255Z,99264.09
2023-01-09T07:58:00.243Z,99268.94
2023-01-09T08:00:28.203Z,99270.75
2023-01-09T08:02:57.607Z,99281.91
2023-01-09T08:05:25.567Z,99285.94
2023-01-09T08:07:53.561Z,99282.44
2023-01-09T08:10:25.019Z,99281.59
2023-01-09T08:12:53.118Z,99281.28
2023-01-09T08:15:21.180Z,99292.41
2023-01-09T08:17:52.009Z,99284.38
2023-01-09T08:20:21.586Z,99281.59
2023-01-09T08:22:54.013Z,99293.41
2023-01-09T08:25:22.349Z,99291.25
2023-01-09T08:27:50.320Z,99292.59
2023-01-09T08:30:22.104Z,99287.91
2023-01-09T08:32:51.996Z,99285.22
2023-01-09T08:35:22.133Z,99285.88
2023-01-09T08:37:53.010Z,99294.34
2023-01-09T08:40:21.145Z,99292.72
2023-01-09T08:43:06.430Z,99286.63
2023-01-09T08:45:52.713Z,99290.47
2023-01-09T08:48:22.753Z,99302.19
2023-01-09T08:50:54.086Z,99296.97
2023-01-09T08:53:22.083Z,99301.84
2023-01-09T08:55:50.771Z,99310.03
2023-01-09T08:58:18.674Z,99308.88
2023-01-09T09:00:46.606Z,99323.13
2023-01-09T09:03:14.652Z,99309.09
2023-01-09T09:05:42.654Z,99323.94
2023-01-09T09:08:12.576Z,99315.69
2023-01-09T09:10:43.716Z,99311.84
2023-01-09T09:13:11.642Z,99313.69
2023-01-09T09:15:39.739Z,99312.47
2023-01-09T09:18:09.216Z,99319.34
2023-01-09T09:20:39.747Z,99319.50
2023-01-09T09:23:08.708Z,99315.13
2023-01-09T09:25:39.375Z,99314.47
2023-01-09T09:28:08.423Z,99320.31
2023-01-09T09:30:36.615Z,99329.63
2023-01-09T09:33:05.940Z,99339.03
2023-01-09T09:35:34.831Z,99337.69
2023-01-09T09:38:06.128Z,99332.97
2023-01-09T09:41:07.438Z,99338.97
2023-01-09T09:44:27.907Z,99336.97
2023-01-09T09:47:10.914Z,99341.59
2023-01-09T09:49:52.793Z,99339.94
2023-01-09T09:52:34.931Z,99344.44
2023-01-09T09:55:17.754Z,99349.06
2023-01-09T09:57:49.614Z,99354.22
2023-01-09T10:00:22.773Z,99351.69
2023-01-09T10:02:57.532Z,99350.88
2023-01-09T10:05:32.025Z,99359.53
2023-01-09T10:08:19.753Z,99368.50
2023-01-09T10:10:55.353Z,99365.19
2023-01-09T10:13:44.479Z,99362.00
2023-01-09T10:16:31.304Z,99364.50
2023-01-09T10:19:19.257Z,99360.47
2023-01-09T10:22:03.666Z,99359.72
2023-01-09T10:25:02.565Z,99364.91
2023-01-09T10:28:00.410Z,99365.31
2023-01-09T10:30:42.987Z,99360.72
2023-01-09T10:33:35.072Z,99381.28
2023-01-09T10:36:32.756Z,99384.44
2023-01-09T10:39:08.460Z,99380.31
2023-01-09T10:41:43.246Z,99384.63
2023-01-09T10:44:22.124Z,99378.16
2023-01-09T10:46:56.800Z,99388.25
2023-01-09T10:49:27.374Z,99390.16
2023-01-09T10:52:14.809Z,99384.72
2023-01-09T10:54:52.586Z,99393.63
2023-01-09T10:57:41.594Z,99389.97
2023-01-09T11:00:22.330Z,99396.13
2023-01-09T11:02:54.649Z,99400.13
2023-01-09T11:05:27.770Z,99394.13
2023-01-09T11:08:03.857Z,99400.69
2023-01-09T11:10:49.118Z,99414.72
2023-01-09T11:13:22.793Z,99419.72
2023-01-09T11:16:19.066Z,99425.09
2023-01-09T11:18:57.637Z,99428.44
2023-01-09T11:21:35.736Z,99422.41
2023-01-09T11:24:31.353Z,99432.47
2023-01-09T11:27:27.641Z,99435.06
2023-01-09T11:30:26.212Z,99433.53
2023-01-09T11:32:55.966Z,99434.38
2023-01-09T11:35:33.758Z,99436.38
2023-01-09T11:38:09.200Z,99447.78
2023-01-09T11:40:49.385Z,99449.41
2023-01-09T11:43:32.630Z,99453.94
2023-01-09T11:46:05.598Z,99451.84
2023-01-09T11:48:41.440Z,99457.94
2023-01-09T11:51:23.392Z,99455.31
2023-01-09T11:54:20.159Z,99445.41
2023-01-09T11:56:49.297Z,99448.28
2023-01-09T11:59:20.650Z,99451.81
2023-01-09T12:02:25.322Z,99459.84
2023-01-09T12:04:59.503Z,99455.63
2023-01-09T12:08:05.945Z,99458.97
2023-01-09T12:11:03.473Z,99477.56
2023-01-09T12:14:00.304Z,99470.50
2023-01-09T12:16:39.853Z,99470.84
2023-01-09T12:19:32.354Z,99479.59
2023-01-09T12:22:17.718Z,99493.34
2023-01-09T12:25:14.284Z,99492.56
2023-01-09T12:28:21.679Z,99487.06
2023-01-09T12:31:09.900Z,99485.41
2023-01-09T12:33:52.339Z,99479.75
2023-01-09T12:36:34.368Z,99477.47
2023-01-09T12:39:17.703Z,99488.66
2023-01-09T12:42:16.928Z,99492.28
2023-01-09T12:44:56.410Z,99488.88
2023-01-09T12:47:52.671Z,99488.94
2023-01-09T12:50:49.220Z,99495.84
2023-01-09T12:53:24.783Z,99486.84
2023-01-09T12:56:01.952Z,99496.34
2023-01-09T12:58:44.566Z,99493.59
2023-01-09T13:01:19.832Z,99497.00
2023-01-09T13:04:00.106Z,99507.31
2023-01-09T13:06:32.596Z,99506.88
2023-01-09T13:09:19.302Z,99509.75
2023-01-09T13:12:02.998Z,99506.81
2023-01-09T13:14:50.101Z,99511.03
2023-01-09T13:17:26.103Z,99513.41
2023-01-09T13:19:56.094Z,99517.72
2023-01-09T13:22:28.628Z,99509.69
2023-01-09T13:25:19.154Z,99513.81
2023-01-09T13:28:13.575Z,99504.38
2023-01-09T13:31:17.229Z,99504.84
2023-01-09T13:33:52.517Z,99503.72
2023-01-09T13:36:27.022Z,99509.22
2023-01-09T13:38:57.167Z,99509.84
2023-01-09T13:41:59.596Z,99508.84
2023-01-09T13:44:29.847Z,99513.00
2023-01-09T13:47:03.284Z,99515.41
2023-01-09T13:49:34.488Z,99520.81
2023-01-09T13:52:05.375Z,99525.59
2023-01-09T13:55:21.047Z,99520.94
2023-01-09T13:58:26.456Z,99524.38
2023-01-09T14:01:02.654Z,99534.16
2023-01-09T14:03:36.591Z,99538.22
2023-01-09T14:06:18.549Z,99543.91
2023-01-09T14:08:50.437Z,99552.63
2023-01-09T14:11:29.036Z,99561.50
2023-01-09T14:14:06.994Z,99571.19
2023-01-09T14:16:38.834Z,99570.69
2023-01-09T14:19:28.721Z,99581.09
2023-01-09T14:21:59.134Z,99585.13
2023-01-09T14:24:32.614Z,99588.97
2023-01-09T14:27:02.435Z,99593.66
2023-01-09T14:29:48.667Z,99598.34
2023-01-09T14:32:46.857Z,99604.06
2023-01-09T14:35:28.015Z,99607.25
2023-01-09T14:38:33.095Z,99607.72
2023-01-09T14:41:10.465Z,99600.16
2023-01-09T14:43:52.863Z,99612.13
2023-01-09T14:46:26.296Z,99609.00
2023-01-09T14:49:17.465Z,99622.72
2023-01-09T14:51:50.720Z,99613.22
2023-01-09T14:54:30.029Z,99616.44
2023-01-09T14:56:58.049Z,99624.41
2023-01-09T14:59:26.042Z,99631.66
2023-01-09T15:01:57.826Z,99636.66
2023-01-09T15:04:34.766Z,99624.91
2023-01-09T15:07:06.076Z,99638.31
2023-01-09T15:09:45.317Z,99631.97
2023-01-09T15:12:21.677Z,99636.97
2023-01-09T15:14:55.257Z,99638.13
2023-01-09T15:17:28.467Z,99646.66
2023-01-09T15:19:57.614Z,99645.56
2023-01-09T15:22:31.996Z,99646.47
2023-01-09T15:25:15.814Z,99651.13
2023-01-09T15:27:49.677Z,99655.47
2023-01-09T15:30:23.271Z,99659.34
2023-01-09T15:32:53.541Z,99663.72
2023-01-09T15:35:21.930Z,99665.41
2023-01-09T15:37:56.315Z,99674.59
2023-01-09T15:40:39.472Z,99667.91
2023-01-09T15:43:07.938Z,99670.63
2023-01-09T15:45:42.881Z,99676.16
2023-01-09T15:48:26.922Z,99679.78
2023-01-09T15:50:59.477Z,99681.34
2023-01-09T15:53:30.660Z,99676.81
2023-01-09T15:56:16.143Z,99678.50
2023-01-09T15:58:47.172Z,99685.19
2023-01-09T16:01:31.283Z,99690.59
2023-01-09T16:04:08.085Z,99685.41
2023-01-09T16:06:39.486Z,99699.97
2023-01-09T16:09:17.836Z,99697.25
2023-01-09T16:11:53.054Z,99699.28
2023-01-09T16:14:25.185Z,99694.31
2023-01-09T16:16:55.680Z,99698.53
2023-01-09T16:19:32.379Z,99711.59
2023-01-09T16:22:02.481Z,99716.47
2023-01-09T16:24:41.969Z,99715.63
2023-01-09T16:27:30.553Z,99712.41
2023-01-09T16:30:00.575Z,99708.94
2023-01-09T16:32:32.068Z,99709.94
2023-01-09T16:35:06.053Z,99711.31
2023-01-09T16:37:37.268Z,99721.69
2023-01-09T16:40:32.244Z,99718.75
2023-01-09T16:43:01.576Z,99721.47
2023-01-09T16:45:34.173Z,99727.16
2023-01-09T16:48:03.190Z,99727.16
2023-01-09T16:50:31.320Z,99724.63
2023-01-09T16:53:12.161Z,99723.47
2023-01-09T16:55:41.579Z,99715.44
2023-01-09T16:58:18.713Z,99722.16
2023-01-09T17:00:49.782Z,99732.03
2023-01-09T17:03:20.076Z,99730.03
2023-01-09T17:05:51.301Z,99730.50
2023-01-09T17:08:24.411Z,99729.03
2023-01-09T17:10:56.904Z,99728.50
2023-01-09T17:13:26.043Z,99731.50
2023-01-09T17:15:55.791Z,99735.53
2023-01-09T17:18:25.681Z,99735.53
2023-01-09T17:20:56.867Z,99730.84
2023-01-09T17:23:26.082Z,99732.50
2023-01-09T17:26:17.765Z,99732.84
2023-01-09T17:28:50.269Z,99737.56
2023-01-09T17:31:19.179Z,99738.56
2023-01-09T17:33:47.634Z,99733.84
2023-01-09T17:36:28.219Z,99732.53
2023-01-09T17:38:56.397Z,99735.38
2023-01-09T17:41:28.101Z,99738.72
2023-01-09T17:44:01.577Z,99735.72
2023-01-09T17:46:34.337Z,99736.72
2023-01-09T17:49:03.805Z,99739.38
2023-01-09T17:51:32.071Z,99742.06
2023-01-09T17:54:00.792Z,99742.56
2023-01-09T17:56:34.778Z,99750.75
2023-01-09T17:59:02.818Z,99742.56
2023-01-09T18:01:35.441Z,99756.78
2023-01-09T18:04:11.198Z,99760.63
2023-01-09T18:06:44.263Z,99761.31
2023-01-09T18:09:23.456Z,99764.31
2023-01-09T18:11:58.548Z,99778.53
2023-01-09T18:14:31.817Z,99779.03
2023-01-09T18:17:21.928Z,99777.69
2023-01-09T18:19:56.821Z,99782.88
2023-01-09T18:22:35.940Z,99787.22
2023-01-09T18:25:11.456Z,99785.41
2023-01-09T18:27:47.071Z,99790.75
2023-01-09T18:30:22.787Z,99793.59
2023-01-09T18:32:59.617Z,99793.09
2023-01-09T18:35:33.880Z,99801.28
2023-01-09T18:38:13.357Z,99799.47
2023-01-09T18:40:44.309Z,99799.28
2023-01-09T18:43:21.769Z,99807.84
2023-01-09T18:45:54.043Z,99810.50
2023-01-09T18:48:29.070Z,99809.50
2023-01-09T18:51:08.848Z,99817.53
2023-01-09T18:53:43.549Z,99816.84
2023-01-09T18:56:23.004Z,99826.03
2023-01-09T18:58:59.461Z,99824.22
2023-01-09T19:01:33.804Z,99821.19
2023-01-09T19:04:02.898Z,99818.69
2023-01-09T19:06:32.283Z,99825.72
2023-01-09T19:09:00.572Z,99838.94
2023-01-09T19:11:28.634Z,99838.94
2023-01-09T19:14:00.742Z,99836.75
2023-01-09T19:16:28.835Z,99842.78
2023-01-09T19:18:58.127Z,99847.00
2023-01-09T19:21:26.771Z,99841.28
2023-01-09T19:23:54.976Z,99846.66
2023-01-09T19:26:26.585Z,99846.66
2023-01-09T19:28:57.622Z,99851.50
2023-01-09T19:31:30.367Z,99852.50
2023-01-09T19:33:59.039Z,99854.19
2023-01-09T19:36:30.065Z,99855.84
2023-01-09T19:39:04.252Z,99870.75
2023-01-09T19:41:32.943Z,99867.75
2023-01-09T19:44:03.261Z,99874.94
2023-01-09T19:46:33.449Z,99873.25
2023-01-09T19:49:04.628Z,99877.09
2023-01-09T19:51:35.746Z,99880.28
2023-01-09T19:56:35.554Z,99884.28
2023-01-09T19:59:08.873Z,99880.47
2023-01-09T20:01:41.559Z,99879.25
2023-01-09T20:04:14.996Z,99877.78
2023-01-09T20:06:48.600Z,99883.13
2023-01-09T20:09:21.497Z,99890.81
2023-01-09T20:11:49.974Z,99890.16
2023-01-09T20:14:20.873Z,99892.19
2023-01-09T20:16:53.998Z,99892.19
2023-01-09T20:19:24.042Z,99899.72
2023-01-09T20:21:52.082Z,99894.53
2023-01-09T20:24:20.274Z,99899.53
2023-01-09T20:26:48.271Z,99902.91
2023-01-09T20:29:18.353Z,99904.91
2023-01-09T20:31:47.953Z,99904.03
2023-01-09T20:34:16.682Z,99918.59
2023-01-09T20:36:44.989Z,99916.41
2023-01-09T20:39:13.625Z,99924.44
2023-01-09T20:41:41.707Z,99922.63
2023-01-09T20:44:15.731Z,99936.00
2023-01-09T20:46:48.210Z,99941.03
2023-01-09T20:49:19.136Z,99940.69
2023-01-09T20:51:50.562Z,99939.53
2023-01-09T20:54:21.596Z,99943.69
2023-01-09T20:56:51.882Z,99950.25
2023-01-09T20:59:22.103Z,99951.75
2023-01-09T21:01:54.709Z,99949.22
2023-01-09T21:04:22.821Z,99960.09
2023-01-09T21:06:52.554Z,99961.31
2023-01-09T21:09:22.810Z,99964.66
2023-01-09T21:11:50.661Z,99969.34
2023-01-09T21:14:18.756Z,99974.88
2023-01-09T21:16:54.257Z,99978.56
2023-01-09T21:19:24.594Z,99978.22
2023-01-09T21:21:53.597Z,99981.06
2023-01-09T21:24:26.366Z,99982.41
2023-01-09T21:26:54.355Z,99980.75
2023-01-09T21:29:24.155Z,99983.59
2023-01-09T21:31:52.418Z,99989.78
2023-01-09T21:34:23.121Z,99994.28
2023-01-09T21:36:52.588Z,99998.97
2023-01-09T21:39:24.409Z,100005.19
2023-01-09T21:42:09.835Z,100005.34
2023-01-09T21:44:55.446Z,100011.00
2023-01-09T21:47:23.940Z,100008.53
2023-01-09T21:49:52.301Z,100021.25
2023-01-09T21:52:22.015Z,100025.94
2023-01-09T21:54:49.843Z,100021.25
2023-01-09T21:57:18.222Z,100026.28
2023-01-09T21:59:46.194Z,100033.97
2023-01-09T22:02:15.875Z,100039.81
2023-01-09T22:04:48.220Z,100049.00
2023-01-09T22:07:19.795Z,100052.19
2023-01-09T22:09:49.379Z,100059.22
2023-01-09T22:12:20.199Z,100071.78
2023-01-09T22:14:48.586Z,100079.47
2023-01-09T22:17:16.674Z,100085.81
2023-01-09T22:19:44.622Z,100090.84
2023-01-09T22:22:12.861Z,100093.16
2023-01-09T22:24:41.088Z,100095.22
2023-01-09T22:27:10.482Z,100096.34
2023-01-09T22:29:38.479Z,100099.34
2023-01-09T22:32:06.651Z,100095.69
2023-01-09T22:34:37.363Z,100099.53
2023-01-09T22:37:05.422Z,100106.72
2023-01-09T22:39:33.509Z,100113.41
2023-01-09T22:42:01.762Z,100116.72
2023-01-09T22:44:33.270Z,100116.09
2023-01-09T22:47:01.317Z,100126.78
2023-01-09T22:49:33.476Z,100127.94
2023-01-09T22:52:09.193Z,100134.13
2023-01-09T22:54:37.130Z,100143.81
2023-01-09T22:57:07.646Z,100140.13
2023-01-09T22:59:36.984Z,100149.31
2023-01-09T23:02:05.072Z,100158.03
2023-01-09T23:04:33.105Z,100161.38
2023-01-09T23:07:01.209Z,100164.56
2023-01-09T23:09:29.425Z,100154.84
2023-01-09T23:12:03.240Z,100164.50
2023-01-09T23:14:35.909Z,100165.78
2023-01-09T23:17:07.462Z,100175.34
2023-01-09T23:19:35.683Z,100173.38
2023-01-09T23:22:05.003Z,100177.19
2023-01-09T23:24:35.730Z,100173.81
2023-01-09T23:27:04.329Z,100171.84
2023-01-09T23:29:32.375Z,100172.34
2023-01-09T23:32:00.375Z,100178.84
2023-01-09T23:34:30.043Z,100179.50
2023-01-09T23:36:58.037Z,100181.84
2023-01-09T23:39:26.103Z,100190.03
2023-01-09T23:42:11.433Z,100186.50
2023-01-09T23:44:39.351Z,100190.56
2023-01-09T23:47:07.385Z,100193.88
2023-01-09T23:49:36.746Z,100211.13
2023-01-09T23:52:06.545Z,100204.44
2023-01-09T23:54:34.710Z,100221.03
2023-01-09T23:57:02.687Z,100222.09
2023-01-09T23:59:30.795Z,100230.44
